sensor_id;sensor_type;location;lat;lon;timestamp;temperature;humidity
31133;DHT22;17779;50.942;4.026;2023-04-25T00:01:38;9.80;99.90
31133;DHT22;17779;50.942;4.026;2023-04-25T00:04:04;9.80;99.90
31133;DHT22;17779;50.942;4.026;2023-04-25T00:06:34;9.80;99.90
31133;DHT22;17779;50.942;4.026;2023-04-25T00:09:04;9.80;99.90
31133;DHT22;17779;50.942;4.026;2023-04-25T00:11:33;9.80;99.90
31133;DHT22;17779;50.942;4.026;2023-04-25T00:13:59;9.90;99.90
31133;DHT22;17779;50.942;4.026;2023-04-25T00:16:28;10.00;99.90
31133;DHT22;17779;50.942;4.026;2023-04-25T00:18:55;10.00;99.90
31133;DHT22;17779;50.942;4.026;2023-04-25T00:21:21;9.90;99.90
31133;DHT22;17779;50.942;4.026;2023-04-25T00:23:47;9.90;99.90
31133;DHT22;17779;50.942;4.026;2023-04-25T00:26:13;9.70;99.90
31133;DHT22;17779;50.942;4.026;2023-04-25T00:28:39;9.60;99.90
31133;DHT22;17779;50.942;4.026;2023-04-25T00:31:05;9.50;99.90
31133;DHT22;17779;50.942;4.026;2023-04-25T00:33:31;9.40;99.90
31133;DHT22;17779;50.942;4.026;2023-04-25T00:35:56;9.30;99.90
31133;DHT22;17779;50.942;4.026;2023-04-25T00:38:22;9.30;99.90
31133;DHT22;17779;50.942;4.026;2023-04-25T00:40:48;9.40;99.90
31133;DHT22;17779;50.942;4.026;2023-04-25T00:43:14;9.50;99.90
31133;DHT22;17779;50.942;4.026;2023-04-25T00:45:40;9.40;99.90
31133;DHT22;17779;50.942;4.026;2023-04-25T00:48:06;9.50;99.90
31133;DHT22;17779;50.942;4.026;2023-04-25T00:50:33;9.40;99.90
31133;DHT22;17779;50.942;4.026;2023-04-25T00:52:59;9.40;99.90
31133;DHT22;17779;50.942;4.026;2023-04-25T00:55:26;9.30;99.90
31133;DHT22;17779;50.942;4.026;2023-04-25T00:57:52;9.30;99.90
31133;DHT22;17779;50.942;4.026;2023-04-25T01:00:18;9.30;99.90
31133;DHT22;17779;50.942;4.026;2023-04-25T01:02:44;9.20;99.90
31133;DHT22;17779;50.942;4.026;2023-04-25T01:05:10;9.30;99.90
31133;DHT22;17779;50.942;4.026;2023-04-25T01:07:37;9.30;99.90
31133;DHT22;17779;50.942;4.026;2023-04-25T01:10:04;9.40;99.90
31133;DHT22;17779;50.942;4.026;2023-04-25T01:12:31;9.40;99.90
31133;DHT22;17779;50.942;4.026;2023-04-25T01:14:57;9.20;99.90
31133;DHT22;17779;50.942;4.026;2023-04-25T01:17:23;9.20;99.90
31133;DHT22;17779;50.942;4.026;2023-04-25T01:19:50;9.30;99.90
31133;DHT22;17779;50.942;4.026;2023-04-25T01:22:16;9.30;99.90
31133;DHT22;17779;50.942;4.026;2023-04-25T01:24:42;9.30;99.90
31133;DHT22;17779;50.942;4.026;2023-04-25T01:27:08;9.20;99.90
31133;DHT22;17779;50.942;4.026;2023-04-25T01:29:34;9.10;99.90
31133;DHT22;17779;50.942;4.026;2023-04-25T01:32:01;9.10;99.90
31133;DHT22;17779;50.942;4.026;2023-04-25T01:34:27;9.00;99.90
31133;DHT22;17779;50.942;4.026;2023-04-25T01:36:53;9.10;99.90
31133;DHT22;17779;50.942;4.026;2023-04-25T01:39:20;9.10;99.90
31133;DHT22;17779;50.942;4.026;2023-04-25T01:41:46;9.10;99.90
31133;DHT22;17779;50.942;4.026;2023-04-25T01:44:13;9.20;99.90
31133;DHT22;17779;50.942;4.026;2023-04-25T01:46:38;9.20;99.90
31133;DHT22;17779;50.942;4.026;2023-04-25T01:49:05;9.10;99.90
31133;DHT22;17779;50.942;4.026;2023-04-25T01:51:31;9.00;99.90
31133;DHT22;17779;50.942;4.026;2023-04-25T01:53:57;8.90;99.90
31133;DHT22;17779;50.942;4.026;2023-04-25T01:56:22;9.00;99.90
31133;DHT22;17779;50.942;4.026;2023-04-25T01:58:48;9.00;99.90
31133;DHT22;17779;50.942;4.026;2023-04-25T02:01:14;8.90;99.90
31133;DHT22;17779;50.942;4.026;2023-04-25T02:03:40;8.80;99.90
31133;DHT22;17779;50.942;4.026;2023-04-25T02:06:06;8.80;99.90
31133;DHT22;17779;50.942;4.026;2023-04-25T02:08:32;8.70;99.90
31133;DHT22;17779;50.942;4.026;2023-04-25T02:10:58;8.70;99.90
31133;DHT22;17779;50.942;4.026;2023-04-25T02:13:23;8.70;99.90
31133;DHT22;17779;50.942;4.026;2023-04-25T02:15:49;8.80;99.90
31133;DHT22;17779;50.942;4.026;2023-04-25T02:18:15;8.70;99.90
31133;DHT22;17779;50.942;4.026;2023-04-25T02:20:45;8.70;99.90
31133;DHT22;17779;50.942;4.026;2023-04-25T02:23:11;8.70;99.90
31133;DHT22;17779;50.942;4.026;2023-04-25T02:25:37;8.70;99.90
31133;DHT22;17779;50.942;4.026;2023-04-25T02:28:03;8.70;99.90
31133;DHT22;17779;50.942;4.026;2023-04-25T02:30:29;8.60;99.90
31133;DHT22;17779;50.942;4.026;2023-04-25T02:32:55;8.50;99.90
31133;DHT22;17779;50.942;4.026;2023-04-25T02:35:20;8.50;99.90
31133;DHT22;17779;50.942;4.026;2023-04-25T02:37:46;8.50;99.90
31133;DHT22;17779;50.942;4.026;2023-04-25T02:40:12;8.50;99.90
31133;DHT22;17779;50.942;4.026;2023-04-25T02:42:38;8.40;99.90
31133;DHT22;17779;50.942;4.026;2023-04-25T02:45:04;8.30;99.90
31133;DHT22;17779;50.942;4.026;2023-04-25T02:47:30;8.30;99.90
31133;DHT22;17779;50.942;4.026;2023-04-25T02:49:56;8.20;99.90
31133;DHT22;17779;50.942;4.026;2023-04-25T02:52:21;8.10;99.90
31133;DHT22;17779;50.942;4.026;2023-04-25T02:54:47;8.00;99.90
31133;DHT22;17779;50.942;4.026;2023-04-25T02:57:13;8.00;99.90
31133;DHT22;17779;50.942;4.026;2023-04-25T02:59:39;7.90;99.90
31133;DHT22;17779;50.942;4.026;2023-04-25T03:02:04;8.00;99.90
31133;DHT22;17779;50.942;4.026;2023-04-25T03:04:32;8.00;99.90
31133;DHT22;17779;50.942;4.026;2023-04-25T03:07:01;7.90;99.90
31133;DHT22;17779;50.942;4.026;2023-04-25T03:09:27;7.90;99.90
31133;DHT22;17779;50.942;4.026;2023-04-25T03:11:53;7.90;99.90
31133;DHT22;17779;50.942;4.026;2023-04-25T03:14:19;7.90;99.90
31133;DHT22;17779;50.942;4.026;2023-04-25T03:16:45;7.90;99.90
31133;DHT22;17779;50.942;4.026;2023-04-25T03:19:11;7.90;99.90
31133;DHT22;17779;50.942;4.026;2023-04-25T03:21:37;7.80;99.90
31133;DHT22;17779;50.942;4.026;2023-04-25T03:24:03;7.70;99.90
31133;DHT22;17779;50.942;4.026;2023-04-25T03:26:30;7.70;99.90
31133;DHT22;17779;50.942;4.026;2023-04-25T03:28:55;7.80;99.90
31133;DHT22;17779;50.942;4.026;2023-04-25T03:31:21;7.80;99.90
31133;DHT22;17779;50.942;4.026;2023-04-25T03:33:48;7.90;99.90
31133;DHT22;17779;50.942;4.026;2023-04-25T03:36:13;8.00;99.90
31133;DHT22;17779;50.942;4.026;2023-04-25T03:38:39;8.10;99.90
31133;DHT22;17779;50.942;4.026;2023-04-25T03:41:07;8.20;99.90
31133;DHT22;17779;50.942;4.026;2023-04-25T03:43:33;8.10;99.90
31133;DHT22;17779;50.942;4.026;2023-04-25T03:45:59;8.00;99.90
31133;DHT22;17779;50.942;4.026;2023-04-25T03:48:25;7.90;99.90
31133;DHT22;17779;50.942;4.026;2023-04-25T03:50:52;7.80;99.90
31133;DHT22;17779;50.942;4.026;2023-04-25T03:53:18;7.90;99.90
31133;DHT22;17779;50.942;4.026;2023-04-25T03:55:44;7.80;99.90
31133;DHT22;17779;50.942;4.026;2023-04-25T03:58:10;7.80;99.90
31133;DHT22;17779;50.942;4.026;2023-04-25T04:00:36;7.90;99.90
31133;DHT22;17779;50.942;4.026;2023-04-25T04:03:02;7.90;99.90
31133;DHT22;17779;50.942;4.026;2023-04-25T04:05:27;8.00;99.90
31133;DHT22;17779;50.942;4.026;2023-04-25T04:07:54;8.00;99.90
31133;DHT22;17779;50.942;4.026;2023-04-25T04:10:21;7.90;99.90
31133;DHT22;17779;50.942;4.026;2023-04-25T04:12:47;7.80;99.90
31133;DHT22;17779;50.942;4.026;2023-04-25T04:15:13;7.70;99.90
31133;DHT22;17779;50.942;4.026;2023-04-25T04:17:39;7.70;99.90
31133;DHT22;17779;50.942;4.026;2023-04-25T04:20:05;7.70;99.90
31133;DHT22;17779;50.942;4.026;2023-04-25T04:22:32;7.70;99.90
31133;DHT22;17779;50.942;4.026;2023-04-25T04:24:57;7.70;99.90
31133;DHT22;17779;50.942;4.026;2023-04-25T04:27:23;7.70;99.90
31133;DHT22;17779;50.942;4.026;2023-04-25T04:29:49;7.70;99.90
31133;DHT22;17779;50.942;4.026;2023-04-25T04:32:16;7.70;99.90
31133;DHT22;17779;50.942;4.026;2023-04-25T04:34:42;7.80;99.90
31133;DHT22;17779;50.942;4.026;2023-04-25T04:37:08;8.00;99.90
31133;DHT22;17779;50.942;4.026;2023-04-25T04:39:36;7.90;99.90
31133;DHT22;17779;50.942;4.026;2023-04-25T04:42:02;8.00;99.90
31133;DHT22;17779;50.942;4.026;2023-04-25T04:44:29;8.10;99.90
31133;DHT22;17779;50.942;4.026;2023-04-25T04:46:59;8.10;99.90
31133;DHT22;17779;50.942;4.026;2023-04-25T04:49:25;8.10;99.90
31133;DHT22;17779;50.942;4.026;2023-04-25T04:51:52;8.20;99.90
31133;DHT22;17779;50.942;4.026;2023-04-25T04:54:17;8.20;99.90
31133;DHT22;17779;50.942;4.026;2023-04-25T04:56:43;8.20;99.90
31133;DHT22;17779;50.942;4.026;2023-04-25T04:59:09;8.30;99.90
31133;DHT22;17779;50.942;4.026;2023-04-25T05:01:36;8.40;99.90
31133;DHT22;17779;50.942;4.026;2023-04-25T05:04:01;8.30;99.90
31133;DHT22;17779;50.942;4.026;2023-04-25T05:06:29;8.30;99.90
31133;DHT22;17779;50.942;4.026;2023-04-25T05:08:55;8.20;99.90
31133;DHT22;17779;50.942;4.026;2023-04-25T05:11:23;8.10;99.90
31133;DHT22;17779;50.942;4.026;2023-04-25T05:13:52;8.10;99.90
31133;DHT22;17779;50.942;4.026;2023-04-25T05:16:20;8.10;99.90
31133;DHT22;17779;50.942;4.026;2023-04-25T05:18:46;8.10;99.90
31133;DHT22;17779;50.942;4.026;2023-04-25T05:21:12;8.10;99.90
31133;DHT22;17779;50.942;4.026;2023-04-25T05:23:38;8.00;99.90
31133;DHT22;17779;50.942;4.026;2023-04-25T05:26:04;8.00;99.90
31133;DHT22;17779;50.942;4.026;2023-04-25T05:28:30;7.80;99.90
31133;DHT22;17779;50.942;4.026;2023-04-25T05:30:56;7.90;99.90
31133;DHT22;17779;50.942;4.026;2023-04-25T05:33:21;8.00;99.90
31133;DHT22;17779;50.942;4.026;2023-04-25T05:35:47;8.10;99.90
31133;DHT22;17779;50.942;4.026;2023-04-25T05:38:14;8.10;99.90
31133;DHT22;17779;50.942;4.026;2023-04-25T05:40:40;8.00;99.90
31133;DHT22;17779;50.942;4.026;2023-04-25T05:43:06;8.00;99.90
31133;DHT22;17779;50.942;4.026;2023-04-25T05:45:32;8.00;99.90
31133;DHT22;17779;50.942;4.026;2023-04-25T05:47:58;8.00;99.90
31133;DHT22;17779;50.942;4.026;2023-04-25T05:50:24;8.10;99.90
31133;DHT22;17779;50.942;4.026;2023-04-25T05:52:50;8.30;99.90
31133;DHT22;17779;50.942;4.026;2023-04-25T05:55:16;8.30;99.90
31133;DHT22;17779;50.942;4.026;2023-04-25T05:57:42;8.50;99.90
31133;DHT22;17779;50.942;4.026;2023-04-25T06:00:13;8.60;99.90
31133;DHT22;17779;50.942;4.026;2023-04-25T06:02:41;8.80;99.90
31133;DHT22;17779;50.942;4.026;2023-04-25T06:05:07;8.90;99.90
31133;DHT22;17779;50.942;4.026;2023-04-25T06:07:33;9.10;99.90
31133;DHT22;17779;50.942;4.026;2023-04-25T06:09:59;9.20;99.90
31133;DHT22;17779;50.942;4.026;2023-04-25T06:12:26;9.30;99.90
31133;DHT22;17779;50.942;4.026;2023-04-25T06:14:52;9.40;99.90
31133;DHT22;17779;50.942;4.026;2023-04-25T06:17:18;9.40;99.90
31133;DHT22;17779;50.942;4.026;2023-04-25T06:19:43;9.50;99.90
31133;DHT22;17779;50.942;4.026;2023-04-25T06:22:11;9.70;99.90
31133;DHT22;17779;50.942;4.026;2023-04-25T06:24:37;9.60;99.90
31133;DHT22;17779;50.942;4.026;2023-04-25T06:27:03;9.40;99.90
31133;DHT22;17779;50.942;4.026;2023-04-25T06:29:28;9.30;99.90
31133;DHT22;17779;50.942;4.026;2023-04-25T06:31:54;9.20;99.90
31133;DHT22;17779;50.942;4.026;2023-04-25T06:34:20;9.20;99.90
31133;DHT22;17779;50.942;4.026;2023-04-25T06:36:47;9.50;99.90
31133;DHT22;17779;50.942;4.026;2023-04-25T06:39:12;9.50;99.90
31133;DHT22;17779;50.942;4.026;2023-04-25T06:41:38;9.40;99.90
31133;DHT22;17779;50.942;4.026;2023-04-25T06:44:04;9.30;99.90
31133;DHT22;17779;50.942;4.026;2023-04-25T06:46:30;9.40;99.90
31133;DHT22;17779;50.942;4.026;2023-04-25T06:48:55;9.30;99.90
31133;DHT22;17779;50.942;4.026;2023-04-25T06:51:21;9.20;99.90
31133;DHT22;17779;50.942;4.026;2023-04-25T06:53:47;9.10;99.90
31133;DHT22;17779;50.942;4.026;2023-04-25T06:56:13;9.10;99.90
31133;DHT22;17779;50.942;4.026;2023-04-25T06:58:39;9.10;99.90
31133;DHT22;17779;50.942;4.026;2023-04-25T07:01:04;9.20;99.90
31133;DHT22;17779;50.942;4.026;2023-04-25T07:03:30;9.30;99.90
31133;DHT22;17779;50.942;4.026;2023-04-25T07:05:56;9.50;99.90
31133;DHT22;17779;50.942;4.026;2023-04-25T07:08:22;9.60;99.90
31133;DHT22;17779;50.942;4.026;2023-04-25T07:10:47;9.70;99.90
31133;DHT22;17779;50.942;4.026;2023-04-25T07:13:13;9.80;99.90
31133;DHT22;17779;50.942;4.026;2023-04-25T07:15:39;10.00;99.90
31133;DHT22;17779;50.942;4.026;2023-04-25T07:18:05;10.10;99.90
31133;DHT22;17779;50.942;4.026;2023-04-25T07:20:30;10.10;99.90
31133;DHT22;17779;50.942;4.026;2023-04-25T07:22:57;10.30;99.90
31133;DHT22;17779;50.942;4.026;2023-04-25T07:25:23;10.20;99.90
31133;DHT22;17779;50.942;4.026;2023-04-25T07:27:49;10.40;99.90
31133;DHT22;17779;50.942;4.026;2023-04-25T07:30:15;10.50;99.90
31133;DHT22;17779;50.942;4.026;2023-04-25T07:32:40;10.60;99.90
31133;DHT22;17779;50.942;4.026;2023-04-25T07:35:06;10.60;99.90
31133;DHT22;17779;50.942;4.026;2023-04-25T07:37:34;10.50;99.90
31133;DHT22;17779;50.942;4.026;2023-04-25T07:40:01;10.60;99.90
31133;DHT22;17779;50.942;4.026;2023-04-25T07:42:29;10.40;99.90
31133;DHT22;17779;50.942;4.026;2023-04-25T07:44:55;10.50;99.90
31133;DHT22;17779;50.942;4.026;2023-04-25T07:47:20;10.60;99.90
31133;DHT22;17779;50.942;4.026;2023-04-25T07:49:46;10.80;99.90
31133;DHT22;17779;50.942;4.026;2023-04-25T07:52:12;11.20;99.90
31133;DHT22;17779;50.942;4.026;2023-04-25T07:54:38;11.50;99.90
31133;DHT22;17779;50.942;4.026;2023-04-25T07:57:03;11.70;99.90
31133;DHT22;17779;50.942;4.026;2023-04-25T07:59:32;11.60;99.90
31133;DHT22;17779;50.942;4.026;2023-04-25T08:01:57;11.60;99.90
31133;DHT22;17779;50.942;4.026;2023-04-25T08:04:24;11.50;99.90
31133;DHT22;17779;50.942;4.026;2023-04-25T08:06:50;12.80;99.90
31133;DHT22;17779;50.942;4.026;2023-04-25T08:09:18;14.30;99.90
31133;DHT22;17779;50.942;4.026;2023-04-25T08:11:43;13.90;99.90
31133;DHT22;17779;50.942;4.026;2023-04-25T08:14:09;13.70;99.90
31133;DHT22;17779;50.942;4.026;2023-04-25T08:16:35;13.50;99.90
31133;DHT22;17779;50.942;4.026;2023-04-25T08:19:01;13.00;99.90
31133;DHT22;17779;50.942;4.026;2023-04-25T08:21:26;12.50;99.90
31133;DHT22;17779;50.942;4.026;2023-04-25T08:23:53;11.90;99.90
31133;DHT22;17779;50.942;4.026;2023-04-25T08:26:18;11.60;99.90
31133;DHT22;17779;50.942;4.026;2023-04-25T08:28:44;11.40;99.90
31133;DHT22;17779;50.942;4.026;2023-04-25T08:31:10;10.90;99.90
31133;DHT22;17779;50.942;4.026;2023-04-25T08:33:37;10.50;99.90
31133;DHT22;17779;50.942;4.026;2023-04-25T08:36:03;10.50;99.90
31133;DHT22;17779;50.942;4.026;2023-04-25T08:38:29;10.50;99.90
31133;DHT22;17779;50.942;4.026;2023-04-25T08:40:56;10.60;99.90
31133;DHT22;17779;50.942;4.026;2023-04-25T08:43:25;10.50;99.90
31133;DHT22;17779;50.942;4.026;2023-04-25T08:45:53;10.70;99.90
31133;DHT22;17779;50.942;4.026;2023-04-25T08:48:23;10.90;99.90
31133;DHT22;17779;50.942;4.026;2023-04-25T08:50:52;10.90;99.90
31133;DHT22;17779;50.942;4.026;2023-04-25T08:53:31;11.20;99.90
31133;DHT22;17779;50.942;4.026;2023-04-25T08:55:58;12.20;99.90
31133;DHT22;17779;50.942;4.026;2023-04-25T08:58:24;14.40;99.90
31133;DHT22;17779;50.942;4.026;2023-04-25T09:00:52;16.00;99.90
31133;DHT22;17779;50.942;4.026;2023-04-25T09:03:18;17.70;99.90
31133;DHT22;17779;50.942;4.026;2023-04-25T09:05:44;18.20;99.90
31133;DHT22;17779;50.942;4.026;2023-04-25T09:08:10;17.40;99.90
31133;DHT22;17779;50.942;4.026;2023-04-25T09:10:37;16.00;99.90
31133;DHT22;17779;50.942;4.026;2023-04-25T09:13:11;13.70;99.90
31133;DHT22;17779;50.942;4.026;2023-04-25T09:15:49;12.60;99.90
31133;DHT22;17779;50.942;4.026;2023-04-25T09:18:36;12.10;99.90
31133;DHT22;17779;50.942;4.026;2023-04-25T09:21:08;12.10;99.90
31133;DHT22;17779;50.942;4.026;2023-04-25T09:23:47;12.60;99.90
31133;DHT22;17779;50.942;4.026;2023-04-25T09:26:19;15.80;99.90
31133;DHT22;17779;50.942;4.026;2023-04-25T09:28:45;18.30;98.30
31133;DHT22;17779;50.942;4.026;2023-04-25T09:31:23;16.90;97.60
31133;DHT22;17779;50.942;4.026;2023-04-25T09:33:49;15.90;98.60
31133;DHT22;17779;50.942;4.026;2023-04-25T09:36:15;14.90;99.90
31133;DHT22;17779;50.942;4.026;2023-04-25T09:38:43;17.70;98.70
31133;DHT22;17779;50.942;4.026;2023-04-25T09:41:10;18.60;94.10
31133;DHT22;17779;50.942;4.026;2023-04-25T09:43:36;19.70;92.00
31133;DHT22;17779;50.942;4.026;2023-04-25T09:46:04;19.40;90.20
31133;DHT22;17779;50.942;4.026;2023-04-25T09:48:33;18.30;90.80
31133;DHT22;17779;50.942;4.026;2023-04-25T09:51:12;18.80;89.10
31133;DHT22;17779;50.942;4.026;2023-04-25T09:53:41;17.50;91.20
31133;DHT22;17779;50.942;4.026;2023-04-25T09:56:09;16.20;93.60
31133;DHT22;17779;50.942;4.026;2023-04-25T09:58:37;14.80;96.30
31133;DHT22;17779;50.942;4.026;2023-04-25T10:01:05;13.80;99.50
31133;DHT22;17779;50.942;4.026;2023-04-25T10:03:32;13.90;99.90
31133;DHT22;17779;50.942;4.026;2023-04-25T10:06:04;12.60;99.90
31133;DHT22;17779;50.942;4.026;2023-04-25T10:08:34;11.70;99.90
31133;DHT22;17779;50.942;4.026;2023-04-25T10:11:02;10.50;99.90
31133;DHT22;17779;50.942;4.026;2023-04-25T10:13:32;9.90;99.90
31133;DHT22;17779;50.942;4.026;2023-04-25T10:16:00;9.60;99.90
31133;DHT22;17779;50.942;4.026;2023-04-25T10:18:27;9.40;99.90
31133;DHT22;17779;50.942;4.026;2023-04-25T10:20:58;9.30;99.90
31133;DHT22;17779;50.942;4.026;2023-04-25T10:23:25;9.50;99.90
31133;DHT22;17779;50.942;4.026;2023-04-25T10:25:52;9.80;99.90
31133;DHT22;17779;50.942;4.026;2023-04-25T10:28:19;10.20;99.90
31133;DHT22;17779;50.942;4.026;2023-04-25T10:31:07;10.00;99.90
31133;DHT22;17779;50.942;4.026;2023-04-25T10:33:37;9.90;99.90
31133;DHT22;17779;50.942;4.026;2023-04-25T10:36:21;9.90;99.90
31133;DHT22;17779;50.942;4.026;2023-04-25T10:38:48;10.20;99.90
31133;DHT22;17779;50.942;4.026;2023-04-25T10:41:20;10.40;99.90
31133;DHT22;17779;50.942;4.026;2023-04-25T10:43:49;10.40;99.90
31133;DHT22;17779;50.942;4.026;2023-04-25T10:46:21;10.80;99.90
31133;DHT22;17779;50.942;4.026;2023-04-25T10:51:26;11.30;99.90
31133;DHT22;17779;50.942;4.026;2023-04-25T10:56:25;12.00;99.90
31133;DHT22;17779;50.942;4.026;2023-04-25T10:58:51;12.00;99.90
31133;DHT22;17779;50.942;4.026;2023-04-25T11:01:24;12.20;99.90
31133;DHT22;17779;50.942;4.026;2023-04-25T11:03:57;12.30;99.90
31133;DHT22;17779;50.942;4.026;2023-04-25T11:06:32;12.50;99.90
31133;DHT22;17779;50.942;4.026;2023-04-25T11:09:02;12.50;99.90
31133;DHT22;17779;50.942;4.026;2023-04-25T11:11:36;12.10;99.90
31133;DHT22;17779;50.942;4.026;2023-04-25T11:14:02;12.00;99.90
31133;DHT22;17779;50.942;4.026;2023-04-25T11:16:28;11.70;99.90
31133;DHT22;17779;50.942;4.026;2023-04-25T11:18:57;11.50;99.90
31133;DHT22;17779;50.942;4.026;2023-04-25T11:21:25;12.50;99.90
31133;DHT22;17779;50.942;4.026;2023-04-25T11:23:56;14.20;99.90
31133;DHT22;17779;50.942;4.026;2023-04-25T11:26:22;15.90;99.90
31133;DHT22;17779;50.942;4.026;2023-04-25T11:28:49;15.40;99.90
31133;DHT22;17779;50.942;4.026;2023-04-25T11:31:15;15.00;99.90
31133;DHT22;17779;50.942;4.026;2023-04-25T11:33:41;15.90;99.90
31133;DHT22;17779;50.942;4.026;2023-04-25T11:36:08;17.60;99.90
31133;DHT22;17779;50.942;4.026;2023-04-25T11:38:34;18.70;94.00
31133;DHT22;17779;50.942;4.026;2023-04-25T11:41:00;19.50;93.00
31133;DHT22;17779;50.942;4.026;2023-04-25T11:43:26;20.10;90.20
31133;DHT22;17779;50.942;4.026;2023-04-25T11:45:52;21.70;84.80
31133;DHT22;17779;50.942;4.026;2023-04-25T11:48:18;21.10;81.70
31133;DHT22;17779;50.942;4.026;2023-04-25T11:50:44;20.30;81.40
31133;DHT22;17779;50.942;4.026;2023-04-25T11:53:10;19.90;83.50
31133;DHT22;17779;50.942;4.026;2023-04-25T11:55:37;19.70;82.20
31133;DHT22;17779;50.942;4.026;2023-04-25T11:58:03;20.20;81.20
31133;DHT22;17779;50.942;4.026;2023-04-25T12:00:29;19.90;80.10
31133;DHT22;17779;50.942;4.026;2023-04-25T12:02:57;18.80;83.20
31133;DHT22;17779;50.942;4.026;2023-04-25T12:05:29;19.00;83.80
31133;DHT22;17779;50.942;4.026;2023-04-25T12:07:56;17.50;85.90
31133;DHT22;17779;50.942;4.026;2023-04-25T12:10:21;17.10;88.30
31133;DHT22;17779;50.942;4.026;2023-04-25T12:12:49;16.90;89.60
31133;DHT22;17779;50.942;4.026;2023-04-25T12:15:24;16.40;90.60
31133;DHT22;17779;50.942;4.026;2023-04-25T12:17:51;16.00;90.30
31133;DHT22;17779;50.942;4.026;2023-04-25T12:20:23;15.00;92.90
31133;DHT22;17779;50.942;4.026;2023-04-25T12:22:51;16.40;92.30
31133;DHT22;17779;50.942;4.026;2023-04-25T12:25:37;16.20;91.10
31133;DHT22;17779;50.942;4.026;2023-04-25T12:33:37;19.20;86.90
31133;DHT22;17779;50.942;4.026;2023-04-25T12:36:04;17.60;89.00
31133;DHT22;17779;50.942;4.026;2023-04-25T12:38:39;15.70;92.40
31133;DHT22;17779;50.942;4.026;2023-04-25T12:41:05;15.00;95.00
31133;DHT22;17779;50.942;4.026;2023-04-25T12:43:31;14.80;94.90
31133;DHT22;17779;50.942;4.026;2023-04-25T12:45:57;14.20;95.30
31133;DHT22;17779;50.942;4.026;2023-04-25T12:48:23;13.80;95.60
31133;DHT22;17779;50.942;4.026;2023-04-25T12:50:50;14.50;96.40
31133;DHT22;17779;50.942;4.026;2023-04-25T12:53:18;16.30;93.60
31133;DHT22;17779;50.942;4.026;2023-04-25T12:55:44;17.60;90.80
31133;DHT22;17779;50.942;4.026;2023-04-25T12:58:12;17.60;88.50
31133;DHT22;17779;50.942;4.026;2023-04-25T13:00:38;17.90;90.30
31133;DHT22;17779;50.942;4.026;2023-04-25T13:03:04;17.00;90.50
31133;DHT22;17779;50.942;4.026;2023-04-25T13:05:30;14.90;91.40
31133;DHT22;17779;50.942;4.026;2023-04-25T13:07:56;14.00;93.50
31133;DHT22;17779;50.942;4.026;2023-04-25T13:10:22;13.90;94.70
31133;DHT22;17779;50.942;4.026;2023-04-25T13:12:48;14.20;95.70
31133;DHT22;17779;50.942;4.026;2023-04-25T13:15:14;14.10;95.30
31133;DHT22;17779;50.942;4.026;2023-04-25T13:17:41;14.20;95.90
31133;DHT22;17779;50.942;4.026;2023-04-25T13:20:08;14.50;95.80
31133;DHT22;17779;50.942;4.026;2023-04-25T13:22:35;14.40;94.90
31133;DHT22;17779;50.942;4.026;2023-04-25T13:25:05;14.40;95.40
31133;DHT22;17779;50.942;4.026;2023-04-25T13:27:32;14.60;94.80
31133;DHT22;17779;50.942;4.026;2023-04-25T13:30:03;14.90;94.70
31133;DHT22;17779;50.942;4.026;2023-04-25T13:32:33;14.40;94.10
31133;DHT22;17779;50.942;4.026;2023-04-25T13:35:01;14.60;95.10
31133;DHT22;17779;50.942;4.026;2023-04-25T13:37:27;14.80;94.70
31133;DHT22;17779;50.942;4.026;2023-04-25T13:39:55;14.60;94.90
31133;DHT22;17779;50.942;4.026;2023-04-25T13:42:23;14.60;94.80
31133;DHT22;17779;50.942;4.026;2023-04-25T13:44:48;14.70;95.10
31133;DHT22;17779;50.942;4.026;2023-04-25T13:47:14;14.70;95.80
31133;DHT22;17779;50.942;4.026;2023-04-25T13:49:40;15.10;94.90
31133;DHT22;17779;50.942;4.026;2023-04-25T13:52:06;14.90;93.90
31133;DHT22;17779;50.942;4.026;2023-04-25T13:54:31;14.40;92.70
31133;DHT22;17779;50.942;4.026;2023-04-25T13:56:57;14.10;93.80
31133;DHT22;17779;50.942;4.026;2023-04-25T13:59:24;14.30;95.00
31133;DHT22;17779;50.942;4.026;2023-04-25T14:01:51;14.10;94.00
31133;DHT22;17779;50.942;4.026;2023-04-25T14:04:20;13.60;95.30
31133;DHT22;17779;50.942;4.026;2023-04-25T14:06:46;13.40;96.20
31133;DHT22;17779;50.942;4.026;2023-04-25T14:09:12;13.20;96.60
31133;DHT22;17779;50.942;4.026;2023-04-25T14:11:38;13.20;97.00
31133;DHT22;17779;50.942;4.026;2023-04-25T14:14:04;13.10;97.70
31133;DHT22;17779;50.942;4.026;2023-04-25T14:16:30;13.20;99.00
31133;DHT22;17779;50.942;4.026;2023-04-25T14:18:58;13.50;98.10
31133;DHT22;17779;50.942;4.026;2023-04-25T14:21:24;13.70;96.00
31133;DHT22;17779;50.942;4.026;2023-04-25T14:23:50;14.00;96.10
31133;DHT22;17779;50.942;4.026;2023-04-25T14:26:16;13.90;96.40
31133;DHT22;17779;50.942;4.026;2023-04-25T14:28:42;14.10;96.30
31133;DHT22;17779;50.942;4.026;2023-04-25T14:31:07;13.80;95.90
31133;DHT22;17779;50.942;4.026;2023-04-25T14:33:34;13.90;96.60
31133;DHT22;17779;50.942;4.026;2023-04-25T14:36:00;13.50;97.80
31133;DHT22;17779;50.942;4.026;2023-04-25T14:38:26;13.30;97.40
31133;DHT22;17779;50.942;4.026;2023-04-25T14:40:52;13.30;97.70
31133;DHT22;17779;50.942;4.026;2023-04-25T14:43:19;13.00;97.10
31133;DHT22;17779;50.942;4.026;2023-04-25T14:45:45;12.90;96.90
31133;DHT22;17779;50.942;4.026;2023-04-25T14:48:11;12.90;96.90
31133;DHT22;17779;50.942;4.026;2023-04-25T14:50:37;12.70;95.90
31133;DHT22;17779;50.942;4.026;2023-04-25T14:53:02;12.40;97.80
31133;DHT22;17779;50.942;4.026;2023-04-25T14:55:28;12.40;99.70
31133;DHT22;17779;50.942;4.026;2023-04-25T14:57:54;12.10;99.90
31133;DHT22;17779;50.942;4.026;2023-04-25T15:00:21;12.00;99.90
31133;DHT22;17779;50.942;4.026;2023-04-25T15:02:50;12.00;99.90
31133;DHT22;17779;50.942;4.026;2023-04-25T15:05:17;11.80;99.90
31133;DHT22;17779;50.942;4.026;2023-04-25T15:07:43;11.80;99.90
31133;DHT22;17779;50.942;4.026;2023-04-25T15:10:10;11.70;99.90
31133;DHT22;17779;50.942;4.026;2023-04-25T15:12:46;11.70;99.90
31133;DHT22;17779;50.942;4.026;2023-04-25T15:15:12;11.50;99.90
31133;DHT22;17779;50.942;4.026;2023-04-25T15:17:41;11.30;99.90
31133;DHT22;17779;50.942;4.026;2023-04-25T15:20:09;11.20;99.90
31133;DHT22;17779;50.942;4.026;2023-04-25T15:22:36;11.20;99.90
31133;DHT22;17779;50.942;4.026;2023-04-25T15:25:02;11.20;99.90
31133;DHT22;17779;50.942;4.026;2023-04-25T15:27:28;11.30;99.90
31133;DHT22;17779;50.942;4.026;2023-04-25T15:29:54;11.40;99.90
31133;DHT22;17779;50.942;4.026;2023-04-25T15:32:20;11.30;99.90
31133;DHT22;17779;50.942;4.026;2023-04-25T15:34:46;11.40;99.90
31133;DHT22;17779;50.942;4.026;2023-04-25T15:37:12;11.60;99.90
31133;DHT22;17779;50.942;4.026;2023-04-25T15:39:37;11.80;99.90
31133;DHT22;17779;50.942;4.026;2023-04-25T15:42:03;11.80;99.90
31133;DHT22;17779;50.942;4.026;2023-04-25T15:44:29;11.80;99.90
31133;DHT22;17779;50.942;4.026;2023-04-25T15:46:55;11.80;99.90